FCBB/BZV METAR and TAF weather

Enter ICAO airport designator
Station Type Date Time Source
FCBB METAR 2018/12/10 17:32 UTC NOAA

FCBB 101732Z 25005KT 9999 -TSRA SCT020 BKN025 FEW030CB 25/23 Q1014 BECMG 4000 TSRA


Station Type Date Time Source
FCBB Decoded METAR 2018/12/10 17:32 UTC NOAA

Brazzaville / Maya-Maya, Congo, Republic of the (FCBB) 04-15S 015-15E 316M
Dec 10, 2018 - 12:32 PM EST / 2018.12.10 1732 UTC
Wind: from the WSW (250 degrees) at 6 MPH (5 KT):0
Visibility: greater than 7 mile(s):0
Sky conditions: mostly cloudy
Weather: light rain with thunder; Cumulonimbus clouds observed
Temperature: 77 F (25 C)
Dew Point: 73 F (23 C)
Relative Humidity: 88%
Pressure (altimeter): 29.94 in. Hg (1014 hPa)
ob: FCBB 101732Z 25005KT 9999 -TSRA SCT020 BKN025 FEW030CB 25/23 Q1014 BECMG 4000 TSRA
cycle: 17

Station Type Date Time Source
FCBB TAF 2018/12/10 18:04 UTC NOAA

TAF FCBB 101700Z 1018/1124 24004KT 9000 TS SCT013 SCT023 FEW026CB
BECMG 1019/1021 NSW SCT012 SCT023
BECMG 1110/1113 SCT014 SCT023 FEW030CB
TEMPO 1115/1121 TS


Example: see airport list